Time;durP1;ratioP1;P1;durP2;ratioP2;P2;SDS_P1;SDS_P2;PMS_P1;PMS_P2;Temp;Humidity;BMP_temperature;BMP_pressure;BME280_temperature;BME280_humidity;BME280_pressure;Samples;Min_cycle;Max_cycle;Signal;HPM_P1;HPM_P2
2021/04/10 00:02:26;;;;;;;10.73;9.63;;;;;;;;;;5021113;28;20245;-49
2021/04/10 00:04:51;;;;;;;11.67;9.80;;;;;;;;;;5020944;28;20203;-45
2021/04/10 00:07:16;;;;;;;11.20;9.90;;;;;;;;;;5024597;28;20206;-47
2021/04/10 00:09:44;;;;;;;11.20;9.50;;;;;;;;;;5019983;28;20817;-47
2021/04/10 00:12:09;;;;;;;11.00;9.87;;;;;;;;;;5022104;28;20209;-48
2021/04/10 00:14:35;;;;;;;11.60;9.93;;;;;;;;;;5024776;28;20191;-48
2021/04/10 00:17:00;;;;;;;11.33;10.13;;;;;;;;;;5019563;28;20273;-46
2021/04/10 00:19:25;;;;;;;11.77;10.30;;;;;;;;;;5021998;28;20195;-48
2021/04/10 00:21:51;;;;;;;13.87;9.87;;;;;;;;;;5017922;28;20746;-48
2021/04/10 00:24:16;;;;;;;13.90;11.07;;;;;;;;;;5025570;28;20229;-48
2021/04/10 00:26:41;;;;;;;13.90;11.10;;;;;;;;;;5020842;28;20277;-49
2021/04/10 00:29:06;;;;;;;13.33;11.20;;;;;;;;;;5018929;28;20237;-47
2021/04/10 00:31:33;;;;;;;15.83;11.17;;;;;;;;;;5021957;28;20206;-46
2021/04/10 00:33:58;;;;;;;14.00;11.27;;;;;;;;;;5015997;28;20228;-47
2021/04/10 00:36:24;;;;;;;16.30;11.90;;;;;;;;;;5020702;28;20218;-48
2021/04/10 00:38:49;;;;;;;14.83;10.67;;;;;;;;;;5023016;28;20221;-46
2021/04/10 00:41:14;;;;;;;12.10;10.90;;;;;;;;;;5020289;28;20207;-47
2021/04/10 00:43:39;;;;;;;12.70;10.90;;;;;;;;;;5024560;28;20202;-47
2021/04/10 00:46:08;;;;;;;11.13;10.07;;;;;;;;;;5022261;28;20212;-48
2021/04/10 00:48:34;;;;;;;12.93;10.63;;;;;;;;;;5023260;28;20178;-47
2021/04/10 00:51:00;;;;;;;14.27;10.67;;;;;;;;;;5017929;28;20250;-47
2021/04/10 00:53:30;;;;;;;12.77;10.47;;;;;;;;;;5024350;28;20207;-47
2021/04/10 00:55:59;;;;;;;12.57;11.00;;;;;;;;;;5017653;28;20539;-47
2021/04/10 00:58:24;;;;;;;13.30;11.50;;;;;;;;;;5021293;28;20190;-47
2021/04/10 01:00:50;;;;;;;13.30;11.90;;;;;;;;;;5023486;28;20183;-46
2021/04/10 01:03:16;;;;;;;15.60;10.90;;;;;;;;;;5019959;28;20422;-47
2021/04/10 01:05:41;;;;;;;12.03;10.77;;;;;;;;;;5021266;28;20183;-47
2021/04/10 01:08:07;;;;;;;13.40;11.33;;;;;;;;;;5019790;28;20202;-48
2021/04/10 01:10:33;;;;;;;11.77;10.50;;;;;;;;;;5024102;28;20244;-47
2021/04/10 01:13:19;;;;;;;12.13;9.73;;;;;;;;;;5019883;28;20297;-48
2021/04/10 01:16:08;;;;;;;17.50;9.90;;;;;;;;;;5013428;28;20230;-46
2021/04/10 01:18:40;;;;;;;10.47;9.37;;;;;;;;;;5022370;28;20875;-46
2021/04/10 01:21:17;;;;;;;10.33;9.03;;;;;;;;;;5035469;28;20199;-47
2021/04/10 01:24:10;;;;;;;13.57;9.47;;;;;;;;;;5021471;28;20214;-46
2021/04/10 01:27:01;;;;;;;11.07;9.23;;;;;;;;;;5014224;28;20314;-48
2021/04/10 01:29:28;;;;;;;10.20;8.10;;;;;;;;;;5016481;28;20293;-46
2021/04/10 01:31:55;;;;;;;10.17;8.40;;;;;;;;;;5021316;28;20218;-47
2021/04/10 01:34:41;;;;;;;10.73;8.73;;;;;;;;;;5021188;28;20743;-47
2021/04/10 01:37:10;;;;;;;10.13;7.97;;;;;;;;;;5022360;28;20191;-47
2021/04/10 01:39:36;;;;;;;9.23;7.67;;;;;;;;;;5020372;28;20198;-47
2021/04/10 01:42:03;;;;;;;10.47;8.63;;;;;;;;;;5020051;28;20310;-48
2021/04/10 01:44:29;;;;;;;10.30;9.20;;;;;;;;;;5021482;28;20210;-45
2021/04/10 01:46:57;;;;;;;9.20;8.20;;;;;;;;;;5020759;28;20205;-48
2021/04/10 01:49:25;;;;;;;10.67;8.73;;;;;;;;;;5022672;28;20210;-48
2021/04/10 01:51:50;;;;;;;10.90;8.90;;;;;;;;;;5021913;28;20744;-46
2021/04/10 01:54:17;;;;;;;10.57;9.10;;;;;;;;;;5023516;28;20206;-47
2021/04/10 01:56:46;;;;;;;11.57;9.27;;;;;;;;;;5040294;28;20225;-47
2021/04/10 01:59:15;;;;;;;10.43;8.57;;;;;;;;;;5021833;28;20199;-47
2021/04/10 02:01:43;;;;;;;11.17;9.07;;;;;;;;;;5020652;28;20264;-48
2021/04/10 02:04:12;;;;;;;11.00;8.40;;;;;;;;;;5020581;28;20202;-47
2021/04/10 02:06:39;;;;;;;11.23;9.43;;;;;;;;;;5022039;28;20191;-49
2021/04/10 02:09:06;;;;;;;10.40;9.17;;;;;;;;;;5024425;28;20198;-49
2021/04/10 02:11:33;;;;;;;12.07;9.60;;;;;;;;;;5006974;28;20206;-51
2021/04/10 02:14:00;;;;;;;11.37;8.80;;;;;;;;;;5024880;28;20229;-47
2021/04/10 02:16:25;;;;;;;11.63;8.10;;;;;;;;;;5023377;28;20709;-48
2021/04/10 02:18:51;;;;;;;11.53;8.50;;;;;;;;;;5027165;28;20203;-48
2021/04/10 02:21:24;;;;;;;10.47;8.97;;;;;;;;;;5024223;28;20207;-46
2021/04/10 02:23:50;;;;;;;11.03;9.23;;;;;;;;;;5025420;28;20301;-46
2021/04/10 02:26:15;;;;;;;10.63;9.30;;;;;;;;;;5023681;28;20357;-48
2021/04/10 02:28:40;;;;;;;9.93;8.73;;;;;;;;;;5023936;28;20199;-50
2021/04/10 02:31:06;;;;;;;13.87;8.63;;;;;;;;;;5026675;28;20654;-48
2021/04/10 02:33:44;;;;;;;11.27;8.80;;;;;;;;;;5024239;28;20187;-49
2021/04/10 02:36:15;;;;;;;14.93;9.77;;;;;;;;;;5024235;28;20202;-48
2021/04/10 02:38:42;;;;;;;13.20;10.30;;;;;;;;;;5023418;28;20198;-50
2021/04/10 02:41:15;;;;;;;14.70;10.13;;;;;;;;;;5024707;28;20175;-48
2021/04/10 02:43:45;;;;;;;15.17;10.10;;;;;;;;;;5026006;28;20178;-47
2021/04/10 02:46:13;;;;;;;19.77;13.10;;;;;;;;;;5016326;28;20552;-47
2021/04/10 02:48:46;;;;;;;16.57;12.53;;;;;;;;;;5019173;28;20659;-49
2021/04/10 02:51:15;;;;;;;17.73;13.00;;;;;;;;;;5025798;28;20548;-48
2021/04/10 02:53:41;;;;;;;22.50;15.77;;;;;;;;;;5023701;28;20199;-47
2021/04/10 02:56:08;;;;;;;18.13;14.77;;;;;;;;;;5023130;28;20570;-47
2021/04/10 02:58:34;;;;;;;18.97;15.13;;;;;;;;;;5021873;28;20191;-48
2021/04/10 03:01:00;;;;;;;20.23;16.03;;;;;;;;;;5018448;28;20189;-48
2021/04/10 03:03:27;;;;;;;17.80;13.77;;;;;;;;;;5022291;28;20203;-47
2021/04/10 03:05:53;;;;;;;19.03;14.27;;;;;;;;;;5023205;28;20569;-49
2021/04/10 03:08:22;;;;;;;16.67;14.17;;;;;;;;;;5023957;28;20189;-47
2021/04/10 03:10:53;;;;;;;16.57;13.47;;;;;;;;;;5021927;28;20231;-48
2021/04/10 03:13:19;;;;;;;15.83;13.03;;;;;;;;;;5023845;28;20294;-48
2021/04/10 03:15:45;;;;;;;22.60;15.30;;;;;;;;;;5022577;28;20216;-47
2021/04/10 03:18:14;;;;;;;15.43;13.47;;;;;;;;;;5024388;28;20204;-48
2021/04/10 03:20:39;;;;;;;15.10;12.90;;;;;;;;;;5026172;28;20274;-47
2021/04/10 03:23:05;;;;;;;16.13;13.70;;;;;;;;;;5037880;28;20301;-47
2021/04/10 03:25:30;;;;;;;17.23;13.60;;;;;;;;;;5023559;28;20194;-47
2021/04/10 03:27:56;;;;;;;22.50;14.90;;;;;;;;;;5024588;28;20263;-46
2021/04/10 03:30:22;;;;;;;18.40;14.97;;;;;;;;;;5025105;28;20213;-47
2021/04/10 03:32:48;;;;;;;23.77;15.80;;;;;;;;;;5022336;28;20253;-47
2021/04/10 03:35:14;;;;;;;18.20;15.57;;;;;;;;;;5014530;28;20199;-48
2021/04/10 03:37:40;;;;;;;17.17;14.47;;;;;;;;;;5019677;28;20245;-47
2021/04/10 03:40:06;;;;;;;19.13;15.03;;;;;;;;;;5018854;28;20191;-48
2021/04/10 03:42:40;;;;;;;16.17;13.07;;;;;;;;;;5025846;28;20198;-49
2021/04/10 03:45:07;;;;;;;19.43;13.77;;;;;;;;;;5023129;28;20205;-49
2021/04/10 03:47:32;;;;;;;17.60;13.60;;;;;;;;;;5019311;28;20308;-47
2021/04/10 03:49:58;;;;;;;19.50;14.27;;;;;;;;;;5022094;28;20348;-49
2021/04/10 03:52:23;;;;;;;16.37;13.10;;;;;;;;;;5020495;28;20213;-49
2021/04/10 03:54:48;;;;;;;18.43;14.37;;;;;;;;;;5026124;28;20198;-48
2021/04/10 03:57:14;;;;;;;19.30;13.97;;;;;;;;;;5017692;28;20199;-48
2021/04/10 03:59:39;;;;;;;18.37;13.73;;;;;;;;;;5023353;28;20245;-46
2021/04/10 04:02:05;;;;;;;18.63;13.77;;;;;;;;;;5020484;28;20221;-47
2021/04/10 04:04:30;;;;;;;16.77;14.13;;;;;;;;;;5024732;28;20191;-49
2021/04/10 04:06:55;;;;;;;18.23;14.83;;;;;;;;;;5022253;28;20694;-47
2021/04/10 04:09:21;;;;;;;18.50;15.07;;;;;;;;;;5017083;28;20582;-47
2021/04/10 04:11:46;;;;;;;20.60;16.30;;;;;;;;;;5020829;28;20208;-47
2021/04/10 04:14:11;;;;;;;19.37;16.23;;;;;;;;;;5020851;28;20192;-46
2021/04/10 04:16:36;;;;;;;20.80;15.73;;;;;;;;;;5025910;28;20190;-47
2021/04/10 04:19:02;;;;;;;20.83;15.03;;;;;;;;;;5025261;28;20666;-48
2021/04/10 04:21:27;;;;;;;21.67;15.63;;;;;;;;;;5022406;28;20206;-47
2021/04/10 04:23:52;;;;;;;18.73;15.77;;;;;;;;;;5023363;28;20674;-47
2021/04/10 04:26:17;;;;;;;16.67;14.10;;;;;;;;;;5025470;28;20203;-47
2021/04/10 04:28:45;;;;;;;15.73;14.03;;;;;;;;;;5023553;28;20195;-48
2021/04/10 04:31:10;;;;;;;17.57;14.00;;;;;;;;;;5021266;28;20286;-47
2021/04/10 04:33:35;;;;;;;18.30;14.20;;;;;;;;;;5023045;28;20730;-47
2021/04/10 04:36:01;;;;;;;14.23;12.73;;;;;;;;;;5019599;28;20195;-47
2021/04/10 04:38:26;;;;;;;17.10;13.27;;;;;;;;;;5021424;28;20646;-48
2021/04/10 04:40:51;;;;;;;17.97;13.40;;;;;;;;;;5020110;28;20602;-47
2021/04/10 04:43:17;;;;;;;17.67;14.37;;;;;;;;;;5016463;28;20211;-47
2021/04/10 04:45:42;;;;;;;16.30;13.17;;;;;;;;;;5020829;28;20222;-49
2021/04/10 04:48:08;;;;;;;18.47;14.67;;;;;;;;;;5021760;28;20198;-47
2021/04/10 04:50:33;;;;;;;21.53;14.83;;;;;;;;;;5024272;28;20264;-48
2021/04/10 04:52:58;;;;;;;16.77;14.43;;;;;;;;;;5020747;28;20317;-49
2021/04/10 04:55:23;;;;;;;18.17;15.07;;;;;;;;;;5022051;28;20252;-48
2021/04/10 04:57:49;;;;;;;15.93;14.13;;;;;;;;;;5020658;28;20207;-48
2021/04/10 05:00:14;;;;;;;16.70;14.07;;;;;;;;;;5025632;28;20205;-48
2021/04/10 05:02:40;;;;;;;17.27;14.47;;;;;;;;;;5021965;28;20232;-48
2021/04/10 05:05:06;;;;;;;16.87;14.73;;;;;;;;;;5021795;28;20195;-48
2021/04/10 05:07:31;;;;;;;17.80;14.47;;;;;;;;;;5021594;28;20230;-47
2021/04/10 05:09:56;;;;;;;18.70;15.43;;;;;;;;;;5020249;28;20211;-48
2021/04/10 05:12:21;;;;;;;16.83;14.73;;;;;;;;;;5024003;28;20260;-47
2021/04/10 05:14:46;;;;;;;15.70;13.80;;;;;;;;;;5021770;28;20198;-47
2021/04/10 05:17:14;;;;;;;18.73;14.57;;;;;;;;;;5023043;28;20213;-46
2021/04/10 05:19:39;;;;;;;19.30;14.07;;;;;;;;;;5020251;28;20186;-47
2021/04/10 05:22:04;;;;;;;14.97;12.33;;;;;;;;;;5023687;28;20288;-47
2021/04/10 05:24:29;;;;;;;15.43;13.00;;;;;;;;;;5023364;28;20201;-47
2021/04/10 05:26:54;;;;;;;17.70;12.80;;;;;;;;;;5021431;28;20769;-48
2021/04/10 05:29:22;;;;;;;16.40;13.23;;;;;;;;;;5030280;28;20256;-47
2021/04/10 05:31:48;;;;;;;18.97;15.17;;;;;;;;;;5019480;28;20219;-47
2021/04/10 05:34:13;;;;;;;17.00;13.87;;;;;;;;;;5023388;28;20321;-48
2021/04/10 05:36:38;;;;;;;16.33;13.33;;;;;;;;;;5019798;28;20194;-47
2021/04/10 05:39:04;;;;;;;17.93;13.93;;;;;;;;;;5010186;28;20191;-48
2021/04/10 05:41:29;;;;;;;15.53;13.83;;;;;;;;;;5010988;28;20246;-48
2021/04/10 05:43:54;;;;;;;16.27;13.57;;;;;;;;;;5020088;28;20221;-48
2021/04/10 05:46:20;;;;;;;15.97;13.40;;;;;;;;;;5018614;28;20191;-49
2021/04/10 05:48:45;;;;;;;15.20;13.20;;;;;;;;;;5033205;28;20683;-47
2021/04/10 05:51:10;;;;;;;16.57;13.67;;;;;;;;;;5011028;28;20199;-46
2021/04/10 05:53:38;;;;;;;14.73;12.70;;;;;;;;;;5014318;28;20196;-48
2021/04/10 05:56:03;;;;;;;17.50;12.17;;;;;;;;;;5020027;28;20194;-47
2021/04/10 05:58:28;;;;;;;15.93;12.90;;;;;;;;;;5010948;28;20701;-47
2021/04/10 06:00:54;;;;;;;16.83;13.20;;;;;;;;;;5031208;28;20586;-48
2021/04/10 06:03:20;;;;;;;16.80;12.50;;;;;;;;;;5016540;28;20217;-46
2021/04/10 06:05:46;;;;;;;15.83;12.33;;;;;;;;;;5015692;28;20738;-49
2021/04/10 06:08:11;;;;;;;18.00;13.43;;;;;;;;;;5023509;28;20214;-47
2021/04/10 06:10:36;;;;;;;17.20;12.77;;;;;;;;;;5020306;28;20218;-47
2021/04/10 06:13:01;;;;;;;19.67;12.10;;;;;;;;;;5020708;28;20709;-48
2021/04/10 06:15:27;;;;;;;16.83;12.90;;;;;;;;;;5020285;28;20226;-47
2021/04/10 06:17:52;;;;;;;17.37;12.67;;;;;;;;;;5021383;28;20214;-48
2021/04/10 06:20:18;;;;;;;16.93;12.87;;;;;;;;;;5022330;28;20198;-49
2021/04/10 06:22:43;;;;;;;16.70;12.20;;;;;;;;;;5020182;28;20500;-47
2021/04/10 06:25:09;;;;;;;16.73;12.57;;;;;;;;;;5027706;28;20195;-47
2021/04/10 06:27:35;;;;;;;15.40;12.43;;;;;;;;;;5020822;28;20287;-49
2021/04/10 06:30:01;;;;;;;16.63;12.43;;;;;;;;;;5021478;28;20206;-47
2021/04/10 06:32:26;;;;;;;15.73;12.17;;;;;;;;;;5021595;28;20309;-47
2021/04/10 06:34:51;;;;;;;17.67;12.50;;;;;;;;;;5025932;28;20190;-48
2021/04/10 06:37:16;;;;;;;15.50;12.43;;;;;;;;;;5022993;28;20663;-48
2021/04/10 06:39:43;;;;;;;17.03;12.73;;;;;;;;;;5024132;28;20608;-47
2021/04/10 06:42:08;;;;;;;15.50;12.33;;;;;;;;;;5026646;28;20206;-47
2021/04/10 06:44:34;;;;;;;13.53;11.53;;;;;;;;;;5022572;28;20281;-47
2021/04/10 06:47:02;;;;;;;16.47;11.37;;;;;;;;;;5020649;28;20663;-47
2021/04/10 06:49:30;;;;;;;16.70;11.90;;;;;;;;;;5024199;28;20260;-47
2021/04/10 06:51:56;;;;;;;16.10;11.37;;;;;;;;;;5030788;28;20207;-47
2021/04/10 06:54:26;;;;;;;12.00;10.63;;;;;;;;;;5024614;28;20228;-47
2021/04/10 06:56:57;;;;;;;13.77;10.83;;;;;;;;;;5022009;28;20199;-47
2021/04/10 06:59:40;;;;;;;16.13;10.20;;;;;;;;;;5019668;28;21050;-46
2021/04/10 07:02:09;;;;;;;13.17;8.73;;;;;;;;;;5021274;28;20214;-48
2021/04/10 07:04:35;;;;;;;9.73;8.70;;;;;;;;;;5014403;28;20191;-46
2021/04/10 07:07:00;;;;;;;11.63;9.10;;;;;;;;;;5025607;28;20248;-48
2021/04/10 07:09:28;;;;;;;12.17;8.67;;;;;;;;;;5020471;28;20213;-48
2021/04/10 07:11:55;;;;;;;11.93;8.73;;;;;;;;;;5038399;28;20214;-47
2021/04/10 07:14:20;;;;;;;10.73;7.97;;;;;;;;;;5012146;28;20234;-47
2021/04/10 07:16:45;;;;;;;9.73;6.87;;;;;;;;;;5028534;28;20618;-49
2021/04/10 07:19:11;;;;;;;9.80;7.87;;;;;;;;;;5031938;28;20630;-46
2021/04/10 07:21:37;;;;;;;9.40;7.07;;;;;;;;;;5018785;28;20309;-47
2021/04/10 07:24:03;;;;;;;10.83;6.27;;;;;;;;;;5014264;28;20202;-46
2021/04/10 07:26:50;;;;;;;9.73;6.60;;;;;;;;;;5014014;28;20192;-48
2021/04/10 07:29:31;;;;;;;8.33;6.97;;;;;;;;;;5010885;28;20202;-46
2021/04/10 07:31:58;;;;;;;10.60;7.43;;;;;;;;;;5010233;28;20223;-48
2021/04/10 07:34:24;;;;;;;12.30;5.17;;;;;;;;;;5016443;28;20203;-47
2021/04/10 07:37:00;;;;;;;13.20;5.37;;;;;;;;;;5014593;28;20191;-47
2021/04/10 07:39:26;;;;;;;11.87;5.70;;;;;;;;;;5015955;28;20191;-46
2021/04/10 07:42:02;;;;;;;7.13;5.30;;;;;;;;;;5018499;28;20210;-47
2021/04/10 07:44:39;;;;;;;8.53;5.63;;;;;;;;;;5021157;28;20245;-48
2021/04/10 07:47:07;;;;;;;9.00;5.93;;;;;;;;;;5022414;28;20724;-48
2021/04/10 07:49:33;;;;;;;10.87;6.23;;;;;;;;;;5021248;28;20226;-48
2021/04/10 07:52:07;;;;;;;10.77;5.47;;;;;;;;;;5021829;28;20301;-47
2021/04/10 07:54:37;;;;;;;11.50;5.03;;;;;;;;;;5019674;28;20230;-47
2021/04/10 07:57:05;;;;;;;8.73;5.30;;;;;;;;;;5017720;28;20198;-47
2021/04/10 07:59:46;;;;;;;8.13;3.90;;;;;;;;;;5034587;28;20199;-47
2021/04/10 08:02:15;;;;;;;11.50;4.43;;;;;;;;;;5020912;28;20219;-48
2021/04/10 08:04:42;;;;;;;13.53;5.47;;;;;;;;;;5020832;28;20866;-45
2021/04/10 08:07:09;;;;;;;9.60;4.57;;;;;;;;;;5020647;28;20195;-46
2021/04/10 08:09:36;;;;;;;11.50;5.00;;;;;;;;;;5018282;28;20294;-48
2021/04/10 08:12:06;;;;;;;11.73;4.50;;;;;;;;;;5023474;28;20219;-47
2021/04/10 08:14:42;;;;;;;9.73;4.23;;;;;;;;;;5021007;28;20217;-47
2021/04/10 08:17:07;;;;;;;11.40;5.40;;;;;;;;;;5014591;28;20262;-47
2021/04/10 08:19:34;;;;;;;9.43;4.57;;;;;;;;;;5014825;28;20215;-48
2021/04/10 08:22:00;;;;;;;9.97;3.97;;;;;;;;;;5010422;28;20290;-48
2021/04/10 08:24:32;;;;;;;12.77;4.13;;;;;;;;;;5010533;28;20683;-47
2021/04/10 08:27:01;;;;;;;9.23;3.30;;;;;;;;;;5015835;28;20721;-48
2021/04/10 08:29:26;;;;;;;8.80;3.67;;;;;;;;;;5018028;28;20283;-48
2021/04/10 08:31:53;;;;;;;8.83;3.70;;;;;;;;;;5021846;28;20808;-46
2021/04/10 08:34:18;;;;;;;8.60;3.90;;;;;;;;;;5017472;28;20895;-49
2021/04/10 08:36:58;;;;;;;10.07;4.33;;;;;;;;;;5016233;28;20202;-48
2021/04/10 08:39:28;;;;;;;10.77;4.40;;;;;;;;;;5012904;28;20187;-48
2021/04/10 08:41:56;;;;;;;8.10;4.07;;;;;;;;;;5017048;28;20210;-47
2021/04/10 08:44:24;;;;;;;11.10;4.23;;;;;;;;;;5021038;28;20191;-47
2021/04/10 08:46:50;;;;;;;11.37;4.13;;;;;;;;;;5014775;28;20233;-47
2021/04/10 08:49:18;;;;;;;10.10;4.03;;;;;;;;;;5014403;28;20666;-49
2021/04/10 08:51:45;;;;;;;8.93;4.10;;;;;;;;;;5010180;28;20210;-48
2021/04/10 08:54:12;;;;;;;7.03;4.17;;;;;;;;;;5008241;28;20865;-47
2021/04/10 08:56:39;;;;;;;11.70;4.43;;;;;;;;;;5012873;28;20229;-48
2021/04/10 08:59:16;;;;;;;10.47;3.67;;;;;;;;;;5024115;28;20194;-48
2021/04/10 09:01:43;;;;;;;8.87;3.67;;;;;;;;;;5015654;28;20713;-47
2021/04/10 09:04:11;;;;;;;11.13;4.37;;;;;;;;;;5019834;28;20194;-48
2021/04/10 09:06:36;;;;;;;10.67;4.13;;;;;;;;;;5022383;28;20266;-45
2021/04/10 09:09:10;;;;;;;13.47;4.10;;;;;;;;;;5019236;28;20670;-48
2021/04/10 09:11:35;;;;;;;8.60;3.73;;;;;;;;;;5017140;28;20280;-45
2021/04/10 09:14:01;;;;;;;10.17;3.67;;;;;;;;;;5018447;28;20610;-46
2021/04/10 09:16:28;;;;;;;8.53;4.10;;;;;;;;;;5014660;28;20281;-48
2021/04/10 09:18:54;;;;;;;7.77;3.87;;;;;;;;;;5020751;28;20214;-46
2021/04/10 09:21:25;;;;;;;9.43;3.83;;;;;;;;;;5019397;28;20188;-47
2021/04/10 09:23:51;;;;;;;7.93;3.60;;;;;;;;;;5022225;28;20289;-47
2021/04/10 09:26:18;;;;;;;9.37;3.70;;;;;;;;;;5021341;28;20282;-47
2021/04/10 09:28:56;;;;;;;8.27;3.30;;;;;;;;;;5035008;28;20198;-47
2021/04/10 09:31:41;;;;;;;12.33;3.73;;;;;;;;;;5020579;28;20281;-47
2021/04/10 09:34:45;;;;;;;8.10;3.50;;;;;;;;;;5018172;28;20193;-48
2021/04/10 09:37:11;;;;;;;8.60;4.17;;;;;;;;;;5013168;28;20581;-48
2021/04/10 09:40:02;;;;;;;8.07;4.00;;;;;;;;;;5022401;28;20190;-48
2021/04/10 09:45:13;;;;;;;9.63;4.37;;;;;;;;;;5017484;28;20229;-47
2021/04/10 09:48:07;;;;;;;9.40;4.70;;;;;;;;;;5022184;28;20197;-46
2021/04/10 09:50:39;;;;;;;8.67;4.60;;;;;;;;;;5020005;28;20225;-47
2021/04/10 09:53:17;;;;;;;10.07;4.40;;;;;;;;;;5012620;28;20206;-47
2021/04/10 09:55:45;;;;;;;11.30;4.60;;;;;;;;;;5013764;28;20191;-47
2021/04/10 09:58:15;;;;;;;9.33;4.50;;;;;;;;;;5021327;28;20206;-47
2021/04/10 10:00:44;;;;;;;8.77;4.63;;;;;;;;;;5024798;28;20179;-46
2021/04/10 10:03:13;;;;;;;10.23;4.40;;;;;;;;;;5017338;28;20228;-47
2021/04/10 10:05:43;;;;;;;7.83;4.03;;;;;;;;;;5020480;28;20238;-49
2021/04/10 10:08:11;;;;;;;7.90;4.00;;;;;;;;;;5021796;28;20234;-50
2021/04/10 10:10:41;;;;;;;7.73;4.30;;;;;;;;;;5021019;28;20261;-50
2021/04/10 10:13:09;;;;;;;6.70;4.20;;;;;;;;;;5024712;28;20206;-51
2021/04/10 10:15:35;;;;;;;9.30;4.27;;;;;;;;;;5022399;28;20220;-51
2021/04/10 10:18:20;;;;;;;9.27;4.57;;;;;;;;;;5023816;28;20206;-49
2021/04/10 10:21:04;;;;;;;10.90;4.80;;;;;;;;;;5023760;28;20222;-49
2021/04/10 10:23:33;;;;;;;10.20;4.73;;;;;;;;;;5014894;28;20198;-50
2021/04/10 10:26:13;;;;;;;14.80;5.97;;;;;;;;;;5022363;28;20585;-48
2021/04/10 10:28:43;;;;;;;13.93;5.70;;;;;;;;;;5021695;28;20563;-50
2021/04/10 10:31:12;;;;;;;13.03;6.17;;;;;;;;;;5020225;28;20751;-50
2021/04/10 10:33:38;;;;;;;11.57;5.47;;;;;;;;;;5024918;28;20605;-47
2021/04/10 10:36:04;;;;;;;11.07;5.73;;;;;;;;;;5023273;28;20202;-48
2021/04/10 10:38:37;;;;;;;6.77;4.23;;;;;;;;;;5025030;28;20238;-49
2021/04/10 10:41:03;;;;;;;10.43;4.67;;;;;;;;;;5026720;28;20233;-49
2021/04/10 10:43:29;;;;;;;10.67;4.67;;;;;;;;;;5037491;28;20215;-47
2021/04/10 10:46:03;;;;;;;7.93;4.00;;;;;;;;;;5022788;28;20202;-49
2021/04/10 10:48:35;;;;;;;10.07;4.40;;;;;;;;;;5023198;28;20253;-50
2021/04/10 10:51:00;;;;;;;9.07;3.27;;;;;;;;;;5020281;28;20215;-48
2021/04/10 10:53:28;;;;;;;11.00;3.47;;;;;;;;;;5026100;28;20748;-47
2021/04/10 10:55:58;;;;;;;7.33;3.43;;;;;;;;;;5021831;28;20187;-48
2021/04/10 10:58:24;;;;;;;5.30;2.60;;;;;;;;;;5024156;28;20551;-48
2021/04/10 11:00:50;;;;;;;6.47;4.00;;;;;;;;;;5021938;28;20194;-50
2021/04/10 11:03:22;;;;;;;6.73;3.90;;;;;;;;;;5020557;28;20215;-50
2021/04/10 11:05:49;;;;;;;10.17;4.47;;;;;;;;;;5024040;28;20186;-49
2021/04/10 11:08:19;;;;;;;6.67;4.47;;;;;;;;;;5019723;28;20700;-48
2021/04/10 11:10:46;;;;;;;11.13;4.70;;;;;;;;;;5023536;28;20233;-48
2021/04/10 11:13:13;;;;;;;8.33;4.33;;;;;;;;;;5015990;28;20206;-48
2021/04/10 11:15:43;;;;;;;7.33;4.03;;;;;;;;;;5024323;28;20283;-48
2021/04/10 11:18:24;;;;;;;9.87;3.97;;;;;;;;;;5019581;28;20226;-48
2021/04/10 11:20:49;;;;;;;9.87;4.47;;;;;;;;;;5023442;28;20194;-49
2021/04/10 11:23:14;;;;;;;10.23;4.30;;;;;;;;;;5024452;28;20225;-51
2021/04/10 11:25:48;;;;;;;10.00;4.13;;;;;;;;;;5021896;28;20198;-52
2021/04/10 11:28:30;;;;;;;8.50;4.70;;;;;;;;;;5023333;28;20202;-46
2021/04/10 11:31:08;;;;;;;11.60;5.00;;;;;;;;;;5025282;28;20214;-48
2021/04/10 11:33:35;;;;;;;10.83;5.30;;;;;;;;;;5025373;28;20229;-49
2021/04/10 11:36:02;;;;;;;11.80;5.07;;;;;;;;;;5018452;28;20293;-46
2021/04/10 11:38:27;;;;;;;10.17;5.67;;;;;;;;;;5016231;28;20848;-49
2021/04/10 11:40:53;;;;;;;8.97;5.67;;;;;;;;;;5026232;28;20214;-49
2021/04/10 11:43:21;;;;;;;9.00;5.83;;;;;;;;;;5023101;28;20206;-48
2021/04/10 11:45:51;;;;;;;9.77;5.20;;;;;;;;;;5025161;28;20186;-47
2021/04/10 11:48:22;;;;;;;8.53;6.07;;;;;;;;;;5025105;28;20217;-51
2021/04/10 11:51:01;;;;;;;10.87;6.50;;;;;;;;;;5018597;28;20223;-48
2021/04/10 11:53:33;;;;;;;11.87;5.80;;;;;;;;;;5024857;28;20356;-47
2021/04/10 11:55:58;;;;;;;3.27;2.23;;;;;;;;;;5026999;28;20236;-48
2021/04/10 11:58:37;;;;;;;12.03;5.10;;;;;;;;;;5028679;28;20190;-47
2021/04/10 12:01:10;;;;;;;9.90;6.27;;;;;;;;;;5021150;28;20584;-48
2021/04/10 12:03:55;;;;;;;6.87;4.20;;;;;;;;;;5025467;28;20285;-46
2021/04/10 12:06:31;;;;;;;17.27;5.50;;;;;;;;;;5024274;28;20187;-47
2021/04/10 12:09:13;;;;;;;6.60;3.77;;;;;;;;;;5022137;28;20240;-47
2021/04/10 12:11:40;;;;;;;6.00;2.73;;;;;;;;;;5027007;28;20641;-47
2021/04/10 12:14:13;;;;;;;7.77;4.90;;;;;;;;;;5025479;28;20206;-48
2021/04/10 12:16:39;;;;;;;19.17;12.20;;;;;;;;;;5024932;28;20270;-49
2021/04/10 12:19:06;;;;;;;11.27;5.70;;;;;;;;;;5026199;28;20209;-49
2021/04/10 12:21:32;;;;;;;5.47;3.30;;;;;;;;;;5025888;28;20252;-48
2021/04/10 12:23:57;;;;;;;7.60;4.20;;;;;;;;;;5026901;28;20577;-49
2021/04/10 12:26:23;;;;;;;11.53;7.23;;;;;;;;;;5024687;28;20678;-49
2021/04/10 12:28:48;;;;;;;5.87;3.40;;;;;;;;;;5025652;28;20205;-47
2021/04/10 12:31:14;;;;;;;6.77;3.83;;;;;;;;;;5026496;28;20871;-49
2021/04/10 12:33:40;;;;;;;12.17;5.80;;;;;;;;;;5027511;28;20240;-48
2021/04/10 12:36:07;;;;;;;10.03;6.90;;;;;;;;;;5041332;28;20820;-48
2021/04/10 12:38:33;;;;;;;4.50;2.90;;;;;;;;;;5019379;28;20194;-49
2021/04/10 12:40:59;;;;;;;9.00;6.03;;;;;;;;;;5023626;28;20688;-50
2021/04/10 12:43:24;;;;;;;8.23;4.17;;;;;;;;;;5027156;28;20210;-50
2021/04/10 12:45:49;;;;;;;7.10;3.43;;;;;;;;;;5027218;28;20316;-48
2021/04/10 12:48:15;;;;;;;8.40;5.07;;;;;;;;;;5027507;28;20194;-49
2021/04/10 12:50:40;;;;;;;10.70;6.87;;;;;;;;;;5025009;28;20301;-48
2021/04/10 12:53:06;;;;;;;10.93;7.43;;;;;;;;;;5025250;28;20218;-47
2021/04/10 12:55:32;;;;;;;8.07;4.80;;;;;;;;;;5025096;28;20286;-48
2021/04/10 12:57:57;;;;;;;15.53;7.53;;;;;;;;;;5022564;28;20269;-51
2021/04/10 13:00:22;;;;;;;6.27;4.40;;;;;;;;;;5025430;28;20187;-50
2021/04/10 13:02:48;;;;;;;9.77;5.47;;;;;;;;;;5016343;28;20226;-49
2021/04/10 13:05:14;;;;;;;11.07;6.10;;;;;;;;;;5019559;28;20694;-49
2021/04/10 13:07:41;;;;;;;12.43;5.70;;;;;;;;;;5020455;28;20190;-47
2021/04/10 13:10:07;;;;;;;13.87;7.57;;;;;;;;;;5011888;28;20215;-47
2021/04/10 13:12:33;;;;;;;14.20;8.53;;;;;;;;;;5015049;28;20230;-48
2021/04/10 13:14:58;;;;;;;8.37;4.83;;;;;;;;;;5022848;28;20199;-49
2021/04/10 13:17:23;;;;;;;14.17;5.20;;;;;;;;;;5023609;28;20611;-50
2021/04/10 13:19:49;;;;;;;4.30;2.53;;;;;;;;;;5022066;28;20205;-48
2021/04/10 13:22:15;;;;;;;16.50;8.13;;;;;;;;;;5022147;28;20210;-49
2021/04/10 13:24:41;;;;;;;17.20;10.10;;;;;;;;;;5024627;28;20186;-49
2021/04/10 13:27:07;;;;;;;18.40;11.37;;;;;;;;;;5023483;28;20260;-47
2021/04/10 13:29:32;;;;;;;14.77;9.73;;;;;;;;;;5024722;28;20218;-49
2021/04/10 13:31:57;;;;;;;9.63;4.87;;;;;;;;;;5022440;28;20210;-46
2021/04/10 13:34:23;;;;;;;12.23;7.77;;;;;;;;;;5022363;28;20197;-48
2021/04/10 13:36:48;;;;;;;11.37;6.57;;;;;;;;;;5024336;28;20598;-48
2021/04/10 13:39:14;;;;;;;11.00;6.67;;;;;;;;;;5025414;28;20190;-46
2021/04/10 13:41:41;;;;;;;13.20;8.07;;;;;;;;;;5025772;28;20580;-47
2021/04/10 13:44:07;;;;;;;13.33;8.17;;;;;;;;;;5025675;28;20322;-47
2021/04/10 13:46:33;;;;;;;21.50;12.40;;;;;;;;;;5027403;28;20195;-47
2021/04/10 13:48:59;;;;;;;15.67;11.40;;;;;;;;;;5043940;28;20202;-48
2021/04/10 13:51:25;;;;;;;16.13;12.83;;;;;;;;;;5028727;28;20297;-48
2021/04/10 13:53:50;;;;;;;16.50;10.87;;;;;;;;;;5029393;28;20244;-48
2021/04/10 13:56:17;;;;;;;7.77;5.73;;;;;;;;;;5024349;28;20961;-48
2021/04/10 13:58:44;;;;;;;15.13;10.57;;;;;;;;;;5027085;28;20316;-48
2021/04/10 14:01:10;;;;;;;15.97;10.90;;;;;;;;;;5026625;28;20204;-49
2021/04/10 14:03:35;;;;;;;12.73;9.53;;;;;;;;;;5026618;28;20643;-49
2021/04/10 14:06:00;;;;;;;9.70;6.67;;;;;;;;;;5041680;28;20219;-48
2021/04/10 14:08:26;;;;;;;14.13;10.63;;;;;;;;;;5028013;28;20826;-48
2021/04/10 14:10:52;;;;;;;14.20;10.63;;;;;;;;;;5030004;28;20210;-49
2021/04/10 14:13:19;;;;;;;20.30;11.87;;;;;;;;;;5026969;28;20210;-48
2021/04/10 14:15:44;;;;;;;17.40;11.87;;;;;;;;;;5029192;28;20203;-48
2021/04/10 14:18:10;;;;;;;18.03;10.27;;;;;;;;;;5025004;28;20664;-48
2021/04/10 14:20:39;;;;;;;11.00;6.37;;;;;;;;;;5027011;28;20543;-49
2021/04/10 14:23:07;;;;;;;14.70;8.53;;;;;;;;;;5028852;28;20206;-48
2021/04/10 14:25:34;;;;;;;14.43;5.77;;;;;;;;;;5028781;28;20797;-47
2021/04/10 14:28:00;;;;;;;15.27;10.27;;;;;;;;;;5027585;28;20195;-49
2021/04/10 14:30:28;;;;;;;17.30;12.37;;;;;;;;;;5026025;28;20214;-48
2021/04/10 14:32:54;;;;;;;16.47;13.27;;;;;;;;;;5030073;28;20667;-49
2021/04/10 14:35:23;;;;;;;19.53;12.90;;;;;;;;;;5028373;28;20182;-49
2021/04/10 14:37:48;;;;;;;21.00;14.07;;;;;;;;;;5028360;28;20666;-48